Perryville, KY

7:07 AM EDT on July 06, 2015 (GMT -0400)
Rural Farm | | Change Station
CLOSE
Current Station
Personal Weather Station
Location: Danville, KY
Elevation: 1000 ft
Nearby Weather Stations
Active Advisory: Special Statement

Elev 1000 ft 37.66 °N, 84.84 °W | Updated 1 minute ago

Fog
Fog
64.2 °F
Feels Like 64.2 °F
N
0.0
Wind Variable Wind from East
Gusts 0.0 mph

Today
High -- | Low -- °F
--% Chance of Precip.
Yesterday
High -- | Low -- °F
Precip. -- in
6:24 AM 9:04 PM
Waning Gibbous, 76% visible
Pressure 30.13 in
Visibility 0.5 miles
Clouds Overcast 100 ft
Dew Point 64 °F
Humidity 99%
Rainfall 0.00 in
Snow Depth Not available.
UV 0 out of 12
Pollen 3.20 out of 12
Air Quality Not available.
Flu Activity Not available.
METAR KDVK 061055Z AUTO 00000KT 1/2SM FG OVC001 17/17 A3013 RMK AO2

More Conditions Fewer Conditions

Pressure 30.13 in
Visibility 0.5 miles
Clouds Overcast 100 ft
Dew Point 64 °F
Humidity 99%
Rainfall 0.00 in
Snow Depth Not available.
UV 0 out of 12
Pollen 3.20 out of 12
Air Quality Not available.
Flu Activity Not available.
METAR KDVK 061055Z AUTO 00000KT 1/2SM FG OVC001 17/17 A3013 RMK AO2

More Conditions Fewer Conditions

10-Day Weather Forecast

×

Almanac

Astronomy

Jul. 06, 2015 Rise Set
Actual Time
Civil Twilight
Nautical Twilight
Astronomical Twilight
Moon
Length of Visible Light
Length of Day
Tomorrow will be .
, % of the Moon is Illuminated

Today's Extremes

State Highs State Lows

Community

WunderPhotos

Upload Photos

1,835,532 photos uploaded!

WunderBlogs® & News

Nearby

Air Quality

  Air Quality AQ Index Pollutant
Not available.

Snow Depth

Station Depth Elevation

Earthquake Activity

City Distance Mag. Time & Date
Minimum magnitude displayed is 2.5.

Coastal Water Temperatures

Place Temperature

Stations

Nearby Weather Stations

Station Location Temp. Windchill Dew Point Humidity Wind Precip. Elev Updated Type
                   
Special Statement
Statement as of 4:03 AM CDT on July 06, 2015

... Fog reducing visibility this morning...

Through 8 am... areas of fog will reduce visibilities to a half
mile or less in many locations in south central and east central
Kentucky. Motorists should remain alert for rapid changes in
visibility over a short distance.